Portada
METAR-TAF:

METAR-TAF

Aeropuertos :

Williamson County Regional Airport

Marion, Illinois, Estados Unidos

latitud: 37-45-01N, longitud: 089-00-04W, altitud: 144 m

Observación

El informe se hizo hace 20 minutos, a las 05:35 UTC
Viento calma
Temperatura 20°C
Humedad 94%
Presión 1013 hPa
Visibilidad: 16.1 km
Cielo despejado

METAR: KMWA 130535Z AUTO 00000KT 10SM CLR 20/19 A2992 RMK AO2 T02000192

Hora: 00:55 (05:55 UTC)


TAF: falta

Observaciones y pronósticos meteorológicos de más de 4000 aeropuertos (mensajes METAR y TAF).

Los puntos amarillos y rojos representan las estaciones disponibles.

Ponga el ratón en el punto deseado para ver el nombre de la estación.

Haga clic para ver las observaciones y los pronósticos meteorológicos.

Para cambiar el mapa : haga clic en los botones verdes con una cruz de color negro para hacer un zoom, en el botón verde con un guión para alejar o en las flechas verdes para mapas adyacentes.


METAR-TAF: